Terminal Aerodrome Forecast
Issued by NWS Duluth, MN

Home | Current Version | Previous Version | Text Only | Print | Product List | Glossary On
Versions: 1 2 3 4 5 6 7 8 9 10 11 12 13 14 15
000
FTUS43 KDLH 271100 RRA
TAFINL
TAF
KINL 271154Z 2712/2812 00000KT P6SM SKC
     FM271700 31010G15KT P6SM SCT060
     FM272000 34004KT P6SM SKC
     FM280900 14008KT P6SM SCT070 BKN200=

USA.gov is the U.S. government's official web portal to all federal, state and local government web resources and services.